Main page
METAR-TAF:

METAR-TAF

Airports :

Saint-Louis Airport

Saint-Louis, Senegal

latitude: 16-03N, longitude: 016-27W, elevation: 4 m

Current weather observation

The report was made 49 minutes ago, at 22:00 UTC
Calm wind
Temperature 21°C
Humidity 78%
Pressure 1014 hPa
Visibility 10 km or more
no clouds below 1500 m and no cumulonimbus

METAR: GOSS 202200Z 00000KT CAVOK 21/17 Q1014

Time: 22:49 (22:49 UTC)

Forecast

The report was made 5 hours and 19 minutes ago, at 17:30 UTC
Forecast valid from 20 at 18 UTC to 21 at 18 UTC
Wind 10 kt from the Northeast
Visibility 10 km or more
no clouds below 1500 m and no cumulonimbus

TAF: GOSS 201730Z 2018/2118 04010KT CAVOK

Weather observations and forecasts of more than 4000 airports (METAR and TAF reports).

The available stations are represented by yellow and red dots on the map.

Hover mouse over dot to see the name of the station.

Then click to see weather observations and forecasts.

To change the map : click on the green buttons with a black cross to zoom in, on the green button with a dash to zoom out, or on the green arrows for adjacent maps.


METAR-TAF: